Plum Coulee, Canada
Current Conditions -  °F | °C
As of 9:55 AM on Sunday 21 Dec 2014 (Local Time) from K2C8 Reporting Station
Haze Haze  
Wind Chill: 17°   Ceiling: 200
Heat Index: 27°   Visibility: 1.2mi
Dew Point: 27°   Wind: 10mph
Humidity: 100%   Direction: 190°S
Pressure: 29.65"   Gusts: 21mph
Location:  49.18°N, 97.77°W
Report Text: K2C8 211555Z AUTO 19009G18KT 1 1/4SM BR OVC002 M03/M03 A2965 RMK AO2
Loading
Personal Weather Stations






























Interactive Weather Map New forecast layout! Learn more

10-Day Weather Forecast

Advertisements
Track Severe Weather on mobile